Terminal Aerodrome Forecast
Issued by NWS

Current Version | Previous Version | Text Only | Print | Product List | Glossary On
Versions: 1 2 3 4 5 6 7 8 9 10 11 12 13 14 15 16 17 18
000
FTUS43 KGRB 211700 RRA
TAFCWA
TAF
KCWA 211743Z 2118/2218 18010KT P6SM BKN120
     FM212300 17010KT P6SM FEW015 BKN120 WS015/21040KT
     FM220300 19011KT P6SM BKN015 OVC120 WS015/22045KT
     FM220700 21011KT P6SM SCT005 OVC010 WS015/23040KT
      TEMPO 2207/2211 4SM -FZDZ BR BKN005
     FM221100 21009KT 5SM -FZDZ BR OVC005
     FM221600 22008KT 5SM -FZDZ BR OVC007=

USA.gov is the U.S. government's official web portal to all federal, state and local government web resources and services.